createdAt,value
2018-09-18T00:02:02.255Z,11.90
2018-09-18T00:04:29.977Z,11.70
2018-09-18T00:06:57.703Z,11.70
2018-09-18T00:09:25.467Z,11.80
2018-09-18T00:11:53.212Z,11.80
2018-09-18T00:14:20.896Z,11.80
2018-09-18T00:16:48.640Z,11.70
2018-09-18T00:21:47.363Z,11.40
2018-09-18T00:24:15.108Z,11.50
2018-09-18T00:26:42.769Z,11.60
2018-09-18T00:29:10.339Z,11.60
2018-09-18T00:31:37.912Z,11.60
2018-09-18T00:34:05.415Z,11.40
2018-09-18T00:36:32.919Z,11.30
2018-09-18T00:39:08.807Z,11.40
2018-09-18T00:41:36.319Z,11.50
2018-09-18T00:44:03.871Z,11.50
2018-09-18T00:46:31.391Z,11.30
2018-09-18T00:48:58.999Z,11.20
2018-09-18T00:51:26.508Z,11.20
2018-09-18T00:53:54.180Z,11.20
2018-09-18T00:56:21.917Z,11.20
2018-09-18T00:58:49.653Z,11.10
2018-09-18T01:03:44.753Z,10.60
2018-09-18T01:06:12.807Z,10.60
2018-09-18T01:08:42.450Z,10.60
2018-09-18T01:11:10.148Z,10.60
2018-09-18T01:13:37.847Z,10.60
2018-09-18T01:16:05.548Z,10.70
2018-09-18T01:18:40.119Z,10.80
2018-09-18T01:21:07.911Z,10.90
2018-09-18T01:23:35.587Z,10.90
2018-09-18T01:26:03.308Z,10.90
2018-09-18T01:28:30.939Z,10.80
2018-09-18T01:31:01.676Z,10.70
2018-09-18T01:33:29.468Z,10.90
2018-09-18T01:35:57.204Z,10.90
2018-09-18T01:38:25.315Z,10.90
2018-09-18T01:40:53.416Z,10.90
2018-09-18T01:43:21.216Z,10.90
2018-09-18T01:45:48.871Z,10.90
2018-09-18T01:48:16.516Z,10.80
2018-09-18T01:50:49.735Z,10.60
2018-09-18T01:53:17.347Z,10.50
2018-09-18T01:55:45.093Z,10.50
2018-09-18T01:58:12.780Z,10.70
2018-09-18T02:00:40.524Z,10.70
2018-09-18T02:03:08.181Z,10.70
2018-09-18T02:05:35.931Z,10.50
2018-09-18T02:08:03.584Z,10.50
2018-09-18T02:10:32.419Z,10.50
2018-09-18T02:13:00.143Z,10.40
2018-09-18T02:15:27.779Z,10.40
2018-09-18T02:17:55.324Z,10.50
2018-09-18T02:20:22.903Z,10.50
2018-09-18T02:22:50.410Z,10.30
2018-09-18T02:25:17.968Z,10.30
2018-09-18T02:27:45.503Z,10.40
2018-09-18T02:30:13.100Z,10.50
2018-09-18T02:32:40.635Z,10.50
2018-09-18T02:35:08.170Z,10.50
2018-09-18T02:37:35.705Z,10.50
2018-09-18T02:40:04.399Z,10.50
2018-09-18T02:42:31.912Z,10.50
2018-09-18T02:44:59.461Z,10.50
2018-09-18T02:47:26.983Z,10.50
2018-09-18T02:50:17.251Z,10.40
2018-09-18T02:52:44.803Z,10.40
2018-09-18T02:55:12.315Z,10.20
2018-09-18T02:57:39.888Z,10.00
2018-09-18T03:00:08.644Z,9.90
2018-09-18T03:02:36.363Z,9.90
2018-09-18T03:05:04.079Z,9.90
2018-09-18T03:07:31.839Z,10.00
2018-09-18T03:10:08.159Z,10.10
2018-09-18T03:12:35.860Z,10.10
2018-09-18T03:15:03.586Z,10.10
2018-09-18T03:17:31.263Z,10.00
2018-09-18T03:19:59.115Z,10.00
2018-09-18T03:22:26.836Z,9.90
2018-09-18T03:24:54.500Z,10.10
2018-09-18T03:27:22.238Z,10.10
2018-09-18T03:30:00.459Z,10.10
2018-09-18T03:32:28.192Z,9.90
2018-09-18T03:34:55.839Z,9.90
2018-09-18T03:37:23.552Z,9.80
2018-09-18T03:39:56.268Z,9.90
2018-09-18T03:42:23.887Z,10.00
2018-09-18T03:44:51.581Z,10.00
2018-09-18T03:47:22.064Z,9.90
2018-09-18T03:49:52.735Z,9.80
2018-09-18T03:54:47.820Z,9.60
2018-09-18T03:57:15.832Z,9.40
2018-09-18T04:02:11.004Z,9.20
2018-09-18T04:04:38.679Z,9.20
2018-09-18T04:07:06.460Z,9.30
2018-09-18T04:09:37.468Z,9.50
2018-09-18T04:12:05.157Z,9.60
2018-09-18T04:14:32.888Z,9.60
2018-09-18T04:17:00.564Z,9.60
2018-09-18T04:19:29.355Z,9.60
2018-09-18T04:21:57.107Z,9.60
2018-09-18T04:24:24.788Z,9.50
2018-09-18T04:26:52.547Z,9.40
2018-09-18T04:29:24.820Z,9.40
2018-09-18T04:31:52.471Z,9.30
2018-09-18T04:34:20.171Z,9.40
2018-09-18T04:36:47.880Z,9.10
2018-09-18T04:39:30.024Z,9.20
2018-09-18T04:41:57.675Z,9.40
2018-09-18T04:44:25.366Z,9.60
2018-09-18T04:46:52.899Z,9.60
2018-09-18T04:49:23.960Z,9.50
2018-09-18T04:51:51.535Z,9.50
2018-09-18T04:54:19.064Z,9.50
2018-09-18T04:56:46.591Z,9.60
2018-09-18T04:59:22.792Z,9.50
2018-09-18T05:01:50.362Z,9.40
2018-09-18T05:04:17.943Z,9.30
2018-09-18T05:06:45.479Z,9.40
2018-09-18T05:09:20.864Z,9.40
2018-09-18T05:11:48.367Z,9.30
2018-09-18T05:14:15.959Z,9.20
2018-09-18T05:16:43.489Z,9.10
2018-09-18T05:19:14.548Z,9.10
2018-09-18T05:21:42.072Z,9.10
2018-09-18T05:24:09.642Z,9.00
2018-09-18T05:26:37.139Z,8.90
2018-09-18T05:29:25.799Z,9.00
2018-09-18T05:31:53.314Z,9.00
2018-09-18T05:34:20.823Z,9.30
2018-09-18T05:36:48.347Z,9.30
2018-09-18T05:39:16.905Z,9.20
2018-09-18T05:41:44.531Z,9.20
2018-09-18T05:44:12.025Z,9.30
2018-09-18T05:46:39.589Z,9.30
2018-09-18T05:49:34.788Z,9.50
2018-09-18T05:52:02.319Z,9.60
2018-09-18T05:54:29.860Z,9.80
2018-09-18T05:56:57.552Z,9.80
2018-09-18T05:59:26.312Z,10.00
2018-09-18T06:01:53.984Z,10.10
2018-09-18T06:04:21.747Z,10.30
2018-09-18T06:06:49.488Z,10.30
2018-09-18T06:09:17.271Z,10.40
2018-09-18T06:11:44.924Z,10.50
2018-09-18T06:14:12.696Z,10.60
2018-09-18T06:16:40.404Z,10.60
2018-09-18T06:19:10.265Z,10.80
2018-09-18T06:21:37.907Z,10.90
2018-09-18T06:24:05.600Z,10.90
2018-09-18T06:26:33.316Z,11.00
2018-09-18T06:29:04.935Z,11.10
2018-09-18T06:31:32.620Z,11.10
2018-09-18T06:34:00.307Z,11.20
2018-09-18T06:36:27.863Z,11.30
2018-09-18T06:39:01.236Z,11.20
2018-09-18T06:41:28.901Z,11.10
2018-09-18T06:43:56.624Z,11.40
2018-09-18T06:46:24.368Z,11.60
2018-09-18T06:49:08.783Z,11.80
2018-09-18T06:51:36.544Z,11.70
2018-09-18T06:54:04.220Z,11.90
2018-09-18T06:59:03.216Z,12.60
2018-09-18T07:01:30.917Z,12.80
2018-09-18T07:03:58.612Z,13.10
2018-09-18T07:09:04.680Z,13.10
2018-09-18T07:11:32.375Z,13.40
2018-09-18T07:16:27.552Z,13.70
2018-09-18T07:19:00.563Z,14.00
2018-09-18T07:23:55.597Z,14.60
2018-09-18T07:29:04.664Z,15.10
2018-09-18T07:33:59.818Z,15.50
2018-09-18T07:36:27.564Z,15.80
2018-09-18T07:38:55.333Z,16.20
2018-09-18T07:41:24.012Z,16.50
2018-09-18T07:46:18.808Z,16.90
2018-09-18T07:48:47.402Z,17.20
2018-09-18T07:51:14.904Z,17.50
2018-09-18T07:56:09.710Z,18.00
2018-09-18T07:58:37.374Z,18.30
2018-09-18T08:01:05.089Z,18.50
2018-09-18T08:03:33.445Z,18.70
2018-09-18T08:06:01.220Z,18.80
2018-09-18T08:08:28.884Z,19.00
2018-09-18T08:11:09.729Z,19.00
2018-09-18T08:13:37.444Z,19.10
2018-09-18T08:16:05.141Z,19.50
2018-09-18T08:18:32.781Z,19.70
2018-09-18T08:21:00.472Z,20.00
2018-09-18T08:25:55.649Z,20.50
2018-09-18T08:28:23.341Z,20.70
2018-09-18T08:33:20.546Z,21.40
2018-09-18T08:35:48.293Z,21.70
2018-09-18T08:38:18.328Z,22.10
2018-09-18T08:40:53.549Z,22.10
2018-09-18T08:43:21.216Z,22.30
2018-09-18T08:45:48.950Z,22.40
2018-09-18T08:48:16.648Z,22.80
2018-09-18T08:50:49.893Z,22.80
2018-09-18T08:53:17.616Z,23.00
2018-09-18T08:55:45.304Z,23.20
2018-09-18T08:58:13.012Z,23.30
2018-09-18T09:00:46.575Z,23.10
2018-09-18T09:05:41.733Z,23.50
2018-09-18T09:08:09.517Z,23.40
2018-09-18T09:10:44.342Z,23.80
2018-09-18T09:13:11.998Z,24.00
2018-09-18T09:15:39.839Z,24.30
2018-09-18T09:18:07.519Z,24.40
2018-09-18T09:25:41.240Z,24.80
2018-09-18T09:28:08.968Z,25.10
2018-09-18T09:33:18.595Z,25.50
2018-09-18T09:35:46.277Z,25.60
2018-09-18T09:38:13.967Z,25.60
2018-09-18T09:40:42.760Z,25.90
2018-09-18T09:43:10.537Z,25.80
2018-09-18T09:45:38.192Z,25.70
2018-09-18T09:48:05.919Z,25.90
2018-09-18T09:50:33.695Z,26.10
2018-09-18T09:53:01.355Z,25.90
2018-09-18T10:00:33.413Z,26.70
2018-09-18T10:03:01.359Z,27.00
2018-09-18T10:05:28.917Z,27.20
2018-09-18T10:07:56.764Z,27.00
2018-09-18T10:10:30.060Z,27.10
2018-09-18T10:12:57.791Z,27.10
2018-09-18T10:17:53.074Z,27.70
2018-09-18T10:20:24.072Z,27.20
2018-09-18T10:22:51.759Z,27.40
2018-09-18T10:25:19.479Z,27.60
2018-09-18T10:27:47.192Z,28.00
2018-09-18T10:30:14.927Z,28.00
2018-09-18T10:32:42.730Z,27.90
2018-09-18T10:35:10.331Z,27.80
2018-09-18T10:37:38.010Z,28.00
2018-09-18T10:40:10.656Z,27.80
2018-09-18T10:42:38.406Z,28.40
2018-09-18T10:45:06.488Z,29.00
2018-09-18T10:47:34.145Z,28.60
2018-09-18T10:50:01.699Z,28.40
2018-09-18T10:54:56.492Z,29.70
2018-09-18T10:57:24.059Z,29.30
2018-09-18T11:00:04.140Z,29.40
2018-09-18T11:02:31.676Z,29.40
2018-09-18T11:04:59.184Z,29.90
2018-09-18T11:07:26.735Z,30.30
2018-09-18T11:14:52.422Z,30.10
2018-09-18T11:17:19.953Z,30.30
2018-09-18T11:19:47.628Z,30.10
2018-09-18T11:22:15.224Z,30.90
2018-09-18T11:24:42.887Z,30.60
2018-09-18T11:29:59.380Z,31.60
2018-09-18T11:32:27.120Z,31.50
2018-09-18T11:34:54.835Z,31.20
2018-09-18T11:37:22.584Z,32.30
2018-09-18T11:40:02.556Z,32.70
2018-09-18T11:44:57.635Z,32.70
2018-09-18T11:47:25.311Z,32.20
2018-09-18T11:49:55.129Z,32.00
2018-09-18T11:52:22.829Z,32.10
2018-09-18T11:54:50.479Z,32.30
2018-09-18T11:57:18.433Z,32.50
2018-09-18T11:59:47.172Z,33.50
2018-09-18T12:02:14.962Z,33.80
2018-09-18T12:04:42.730Z,34.50
2018-09-18T12:07:10.354Z,34.00
2018-09-18T12:09:38.232Z,35.50
2018-09-18T12:12:06.009Z,35.60
2018-09-18T12:14:33.685Z,35.50
2018-09-18T12:17:01.340Z,34.80
2018-09-18T12:19:34.434Z,34.60
2018-09-18T12:24:29.299Z,32.30
2018-09-18T12:26:56.859Z,32.60
2018-09-18T12:29:51.064Z,32.60
2018-09-18T12:32:18.573Z,32.60
2018-09-18T12:34:46.209Z,33.50
2018-09-18T12:37:13.715Z,33.80
2018-09-18T12:39:46.339Z,33.70
2018-09-18T12:42:13.982Z,33.30
2018-09-18T12:44:41.439Z,33.60
2018-09-18T12:47:08.975Z,33.60
2018-09-18T12:52:07.172Z,33.80
2018-09-18T12:54:34.708Z,34.20
2018-09-18T12:57:02.374Z,34.30
2018-09-18T13:02:01.143Z,35.20
2018-09-18T13:04:28.881Z,36.80
2018-09-18T13:06:56.609Z,36.50
2018-09-18T13:09:26.359Z,35.70
2018-09-18T13:11:54.135Z,34.60
2018-09-18T13:14:21.840Z,34.40
2018-09-18T13:16:49.584Z,34.60
2018-09-18T13:19:19.353Z,34.50
2018-09-18T13:21:47.203Z,34.70
2018-09-18T13:24:14.876Z,34.40
2018-09-18T13:26:42.573Z,34.20
2018-09-18T13:29:21.432Z,34.50
2018-09-18T13:31:49.132Z,34.40
2018-09-18T13:34:16.956Z,34.80
2018-09-18T13:36:44.701Z,34.70
2018-09-18T13:39:13.481Z,34.70
2018-09-18T13:41:41.196Z,34.60
2018-09-18T13:44:08.928Z,34.40
2018-09-18T13:46:36.737Z,35.00
2018-09-18T13:49:08.625Z,35.20
2018-09-18T13:51:36.268Z,34.80
2018-09-18T13:54:04.052Z,35.00
2018-09-18T13:56:31.944Z,35.90
2018-09-18T13:58:59.536Z,36.50
2018-09-18T14:01:27.385Z,37.10
2018-09-18T14:03:56.009Z,36.20
2018-09-18T14:06:23.747Z,36.10
2018-09-18T14:08:52.595Z,35.20
2018-09-18T14:13:47.672Z,35.30
2018-09-18T14:16:15.404Z,35.80
2018-09-18T14:18:43.072Z,35.60
2018-09-18T14:21:10.805Z,35.60
2018-09-18T14:23:38.496Z,35.80
2018-09-18T14:26:06.216Z,35.60
2018-09-18T14:28:33.857Z,35.70
2018-09-18T14:31:01.622Z,35.20
2018-09-18T14:33:29.277Z,34.90
2018-09-18T14:35:56.924Z,35.20
2018-09-18T14:38:24.754Z,36.20
2018-09-18T14:41:04.617Z,36.10
2018-09-18T14:43:32.324Z,35.90
2018-09-18T14:46:00.028Z,36.40
2018-09-18T14:48:27.724Z,36.30
2018-09-18T14:50:55.441Z,36.00
2018-09-18T14:53:23.116Z,36.30
2018-09-18T14:55:50.760Z,36.60
2018-09-18T14:58:18.459Z,35.60
2018-09-18T15:00:49.520Z,35.30
2018-09-18T15:03:17.311Z,35.40
2018-09-18T15:05:44.974Z,35.20
2018-09-18T15:08:12.628Z,35.20
2018-09-18T15:10:42.467Z,35.50
2018-09-18T15:13:10.190Z,35.90
2018-09-18T15:15:37.884Z,36.30
2018-09-18T15:18:05.515Z,36.70
2018-09-18T15:20:35.303Z,37.60
2018-09-18T15:23:02.998Z,37.90
2018-09-18T15:25:30.704Z,36.50
2018-09-18T15:27:58.429Z,36.50
2018-09-18T15:30:26.145Z,37.50
2018-09-18T15:32:53.868Z,37.50
2018-09-18T15:35:21.589Z,35.90
2018-09-18T15:37:49.851Z,35.70
2018-09-18T15:40:18.653Z,35.40
2018-09-18T15:42:46.309Z,35.80
2018-09-18T15:45:14.195Z,35.90
2018-09-18T15:47:41.940Z,35.50
2018-09-18T15:50:09.852Z,35.10
2018-09-18T15:52:37.599Z,35.10
2018-09-18T15:55:05.339Z,35.00
2018-09-18T15:57:32.998Z,35.00
2018-09-18T16:00:04.568Z,34.60
2018-09-18T16:02:32.368Z,34.30
2018-09-18T16:05:00.149Z,34.30
2018-09-18T16:07:27.824Z,33.80
2018-09-18T16:09:55.696Z,33.40
2018-09-18T16:12:23.304Z,33.20
2018-09-18T16:14:51.037Z,33.00
2018-09-18T16:17:18.719Z,33.00
2018-09-18T16:24:54.677Z,31.50
2018-09-18T16:27:22.227Z,31.20
2018-09-18T16:32:18.148Z,30.10
2018-09-18T16:34:45.674Z,29.60
2018-09-18T16:39:57.112Z,29.10
2018-09-18T16:42:24.712Z,29.10
2018-09-18T16:44:52.232Z,29.00
2018-09-18T16:47:19.787Z,28.90
2018-09-18T16:49:49.371Z,28.70
2018-09-18T16:52:16.923Z,28.60
2018-09-18T16:54:44.446Z,28.50
2018-09-18T16:57:11.983Z,28.30
2018-09-18T17:02:06.948Z,27.50
2018-09-18T17:04:34.558Z,27.40
2018-09-18T17:07:02.021Z,27.40
2018-09-18T17:09:55.079Z,27.40
2018-09-18T17:12:22.812Z,27.30
2018-09-18T17:14:50.519Z,27.10
2018-09-18T17:17:18.206Z,26.90
2018-09-18T17:19:50.608Z,26.80
2018-09-18T17:22:18.420Z,26.40
2018-09-18T17:24:46.280Z,26.30
2018-09-18T17:27:13.960Z,26.20
2018-09-18T17:30:00.936Z,25.90
2018-09-18T17:32:28.651Z,25.50
2018-09-18T17:37:23.805Z,25.00
2018-09-18T17:42:38.255Z,24.60
2018-09-18T17:45:06.155Z,24.40
2018-09-18T17:50:14.421Z,24.10
2018-09-18T17:52:41.979Z,23.80
2018-09-18T17:55:10.599Z,23.70
2018-09-18T18:00:19.536Z,23.30
2018-09-18T18:02:47.081Z,23.40
2018-09-18T18:05:14.615Z,23.30
2018-09-18T18:07:42.171Z,23.40
2018-09-18T18:10:09.760Z,23.30
2018-09-18T18:12:37.388Z,23.20
2018-09-18T18:15:05.204Z,23.20
2018-09-18T18:17:32.966Z,23.10
2018-09-18T18:20:02.815Z,23.10
2018-09-18T18:22:30.521Z,23.00
2018-09-18T18:24:58.200Z,23.00
2018-09-18T18:27:25.811Z,23.00
2018-09-18T18:29:54.602Z,22.90
2018-09-18T18:32:22.336Z,22.70
2018-09-18T18:34:50.077Z,22.70
2018-09-18T18:37:17.755Z,22.60
2018-09-18T18:39:53.428Z,22.40
2018-09-18T18:42:21.168Z,22.40
2018-09-18T18:44:48.873Z,22.40
2018-09-18T18:47:16.645Z,22.30
2018-09-18T18:49:44.484Z,22.20
2018-09-18T18:52:12.140Z,22.20
2018-09-18T18:54:44.112Z,22.10
2018-09-18T18:57:11.843Z,21.90
2018-09-18T18:59:53.596Z,21.90
2018-09-18T19:04:48.691Z,21.80
2018-09-18T19:07:16.303Z,21.60
2018-09-18T19:09:43.984Z,21.50
2018-09-18T19:12:11.657Z,21.40
2018-09-18T19:14:39.332Z,21.40
2018-09-18T19:17:07.090Z,21.30
2018-09-18T19:19:35.816Z,21.30
2018-09-18T19:22:03.476Z,21.20
2018-09-18T19:26:58.516Z,21.10
2018-09-18T19:29:43.805Z,21.10
2018-09-18T19:32:11.507Z,21.00
2018-09-18T19:34:39.160Z,20.90
2018-09-18T19:39:42.193Z,20.50
2018-09-18T19:42:09.907Z,20.30
2018-09-18T19:44:37.600Z,20.40
2018-09-18T19:47:05.299Z,20.30
2018-09-18T19:49:49.983Z,20.00
2018-09-18T19:52:17.666Z,20.00
2018-09-18T19:57:12.728Z,19.70
2018-09-18T19:59:40.491Z,19.70
2018-09-18T20:02:08.206Z,19.70
2018-09-18T20:04:35.933Z,19.80
2018-09-18T20:07:03.667Z,19.70
2018-09-18T20:09:31.464Z,19.70
2018-09-18T20:11:59.204Z,19.60
2018-09-18T20:14:26.916Z,19.60
2018-09-18T20:16:54.622Z,19.50
2018-09-18T20:19:26.651Z,19.30
2018-09-18T20:21:54.333Z,19.40
2018-09-18T20:24:22.045Z,19.40
2018-09-18T20:26:49.671Z,19.40
2018-09-18T20:29:24.451Z,19.30
2018-09-18T20:31:52.126Z,19.30
2018-09-18T20:34:19.883Z,19.10
2018-09-18T20:36:47.487Z,18.90
2018-09-18T20:39:16.165Z,18.90
2018-09-18T20:41:43.934Z,18.80
2018-09-18T20:44:11.628Z,18.80
2018-09-18T20:46:39.275Z,18.70
2018-09-18T20:49:14.621Z,18.70
2018-09-18T20:51:42.307Z,18.70
2018-09-18T20:54:09.988Z,18.70
2018-09-18T20:56:37.711Z,18.60
2018-09-18T20:59:05.511Z,18.70
2018-09-18T21:01:33.289Z,18.60
2018-09-18T21:04:00.989Z,18.50
2018-09-18T21:06:28.695Z,18.40
2018-09-18T21:11:24.864Z,18.10
2018-09-18T21:13:52.613Z,18.00
2018-09-18T21:16:20.372Z,17.60
2018-09-18T21:18:48.127Z,17.60
2018-09-18T21:21:15.790Z,17.60
2018-09-18T21:23:43.488Z,17.60
2018-09-18T21:26:15.281Z,17.80
2018-09-18T21:28:42.960Z,17.80
2018-09-18T21:31:10.655Z,17.80
2018-09-18T21:33:38.355Z,17.80
2018-09-18T21:36:06.016Z,18.00
2018-09-18T21:38:33.684Z,17.90
2018-09-18T21:41:11.003Z,18.00
2018-09-18T21:43:38.696Z,17.90
2018-09-18T21:46:06.485Z,18.00
2018-09-18T21:48:34.116Z,18.00
2018-09-18T21:51:18.608Z,18.00
2018-09-18T21:53:46.427Z,17.90
2018-09-18T21:56:14.242Z,17.80
2018-09-18T21:58:41.900Z,17.80
2018-09-18T22:01:09.578Z,17.80
2018-09-18T22:03:37.193Z,17.80
2018-09-18T22:06:04.904Z,17.70
2018-09-18T22:08:32.584Z,17.70
2018-09-18T22:11:00.392Z,17.70
2018-09-18T22:13:28.123Z,17.60
2018-09-18T22:15:55.795Z,17.30
2018-09-18T22:18:23.560Z,17.40
2018-09-18T22:20:52.373Z,17.40
2018-09-18T22:23:20.120Z,17.40
2018-09-18T22:25:47.756Z,17.40
2018-09-18T22:28:15.429Z,17.30
2018-09-18T22:30:44.233Z,17.10
2018-09-18T22:33:11.908Z,17.00
2018-09-18T22:35:39.600Z,16.90
2018-09-18T22:38:07.341Z,17.00
2018-09-18T22:40:37.140Z,17.10
2018-09-18T22:43:04.812Z,17.00
2018-09-18T22:45:32.572Z,17.00
2018-09-18T22:48:00.307Z,16.90
2018-09-18T22:50:39.332Z,16.70
2018-09-18T22:53:07.143Z,16.70
2018-09-18T22:55:34.859Z,16.50
2018-09-18T22:58:02.641Z,16.50
2018-09-18T23:00:31.450Z,16.50
2018-09-18T23:02:59.216Z,16.40
2018-09-18T23:05:27.688Z,16.40
2018-09-18T23:07:55.416Z,16.50
2018-09-18T23:10:23.177Z,16.60
2018-09-18T23:12:50.908Z,16.70
2018-09-18T23:15:18.628Z,16.60
2018-09-18T23:17:46.475Z,16.50
2018-09-18T23:20:28.152Z,16.60
2018-09-18T23:22:55.712Z,16.70
2018-09-18T23:25:23.228Z,16.70
2018-09-18T23:27:50.868Z,16.70
2018-09-18T23:30:18.675Z,16.60
2018-09-18T23:32:46.395Z,16.60
2018-09-18T23:35:14.062Z,16.60
2018-09-18T23:37:41.729Z,16.60
2018-09-18T23:40:10.472Z,16.60
2018-09-18T23:42:38.196Z,16.40
2018-09-18T23:45:05.945Z,16.30
2018-09-18T23:47:33.724Z,16.30
2018-09-18T23:50:02.405Z,16.20
2018-09-18T23:52:30.147Z,16.20
2018-09-18T23:54:57.831Z,16.20
2018-09-18T23:57:25.527Z,16.20
2018-09-18T23:59:54.296Z,16.30
